Terminal Aerodrome Forecast
Issued by NWS

Home | Current Version | Previous Version | Text Only | Print | Product List | Glossary On
Versions: 1 2 3 4 5 6 7 8 9 10 11 12 13 14
000
FTUS41 KBTV 280528
TAFSLK
TAF
KSLK 280528Z 2806/2906 04004KT P6SM OVC035
     FM281300 03008G17KT P6SM BKN045
     FM282200 34004KT P6SM SCT050=

USA.gov is the U.S. government's official web portal to all federal, state and local government web resources and services.